sensor_id;sensor_type;location;lat;lon;timestamp;temperature;humidity
35305;DHT22;26433;48.034;-1.764;2022-08-07T00:02:30;19.60;45.10
35305;DHT22;26433;48.034;-1.764;2022-08-07T00:07:42;19.50;45.30
35305;DHT22;26433;48.034;-1.764;2022-08-07T00:12:47;19.40;45.60
35305;DHT22;26433;48.034;-1.764;2022-08-07T00:18:02;19.30;45.90
35305;DHT22;26433;48.034;-1.764;2022-08-07T00:23:07;19.20;46.10
35305;DHT22;26433;48.034;-1.764;2022-08-07T00:28:12;19.10;46.40
35305;DHT22;26433;48.034;-1.764;2022-08-07T00:33:16;19.00;46.50
35305;DHT22;26433;48.034;-1.764;2022-08-07T00:38:21;19.00;46.80
35305;DHT22;26433;48.034;-1.764;2022-08-07T00:43:34;18.90;46.90
35305;DHT22;26433;48.034;-1.764;2022-08-07T00:48:57;18.80;46.90
35305;DHT22;26433;48.034;-1.764;2022-08-07T00:54:03;18.70;47.10
35305;DHT22;26433;48.034;-1.764;2022-08-07T00:59:08;18.60;47.10
35305;DHT22;26433;48.034;-1.764;2022-08-07T01:04:12;18.50;47.40
35305;DHT22;26433;48.034;-1.764;2022-08-07T01:09:26;18.40;47.60
35305;DHT22;26433;48.034;-1.764;2022-08-07T01:14:51;18.40;47.90
35305;DHT22;26433;48.034;-1.764;2022-08-07T01:20:05;18.30;48.30
35305;DHT22;26433;48.034;-1.764;2022-08-07T01:25:11;18.20;48.60
35305;DHT22;26433;48.034;-1.764;2022-08-07T01:30:36;18.10;49.00
35305;DHT22;26433;48.034;-1.764;2022-08-07T01:35:44;18.00;49.20
35305;DHT22;26433;48.034;-1.764;2022-08-07T01:40:59;17.90;49.40
35305;DHT22;26433;48.034;-1.764;2022-08-07T01:46:04;17.90;49.70
35305;DHT22;26433;48.034;-1.764;2022-08-07T01:51:17;17.90;49.90
35305;DHT22;26433;48.034;-1.764;2022-08-07T01:56:48;17.80;50.20
35305;DHT22;26433;48.034;-1.764;2022-08-07T02:01:58;17.70;50.50
35305;DHT22;26433;48.034;-1.764;2022-08-07T02:07:07;17.60;50.70
35305;DHT22;26433;48.034;-1.764;2022-08-07T02:12:14;17.60;51.00
35305;DHT22;26433;48.034;-1.764;2022-08-07T02:17:32;17.50;51.10
35305;DHT22;26433;48.034;-1.764;2022-08-07T02:22:39;17.50;51.30
35305;DHT22;26433;48.034;-1.764;2022-08-07T02:27:47;17.40;51.60
35305;DHT22;26433;48.034;-1.764;2022-08-07T02:32:55;17.30;51.90
35305;DHT22;26433;48.034;-1.764;2022-08-07T02:38:11;17.20;52.00
35305;DHT22;26433;48.034;-1.764;2022-08-07T02:43:19;17.20;52.20
35305;DHT22;26433;48.034;-1.764;2022-08-07T02:48:24;17.10;52.30
35305;DHT22;26433;48.034;-1.764;2022-08-07T02:53:32;17.00;52.60
35305;DHT22;26433;48.034;-1.764;2022-08-07T02:58:43;17.00;52.90
35305;DHT22;26433;48.034;-1.764;2022-08-07T03:03:49;16.80;53.60
35305;DHT22;26433;48.034;-1.764;2022-08-07T03:08:57;16.80;53.20
35305;DHT22;26433;48.034;-1.764;2022-08-07T03:14:04;16.70;53.40
35305;DHT22;26433;48.034;-1.764;2022-08-07T03:19:08;16.70;53.70
35305;DHT22;26433;48.034;-1.764;2022-08-07T03:24:15;16.60;53.80
35305;DHT22;26433;48.034;-1.764;2022-08-07T03:29:33;16.60;54.00
35305;DHT22;26433;48.034;-1.764;2022-08-07T03:34:41;16.60;54.20
35305;DHT22;26433;48.034;-1.764;2022-08-07T03:40:06;16.40;54.30
35305;DHT22;26433;48.034;-1.764;2022-08-07T03:45:21;16.40;54.60
35305;DHT22;26433;48.034;-1.764;2022-08-07T03:50:34;16.30;54.80
35305;DHT22;26433;48.034;-1.764;2022-08-07T03:55:39;16.40;55.00
35305;DHT22;26433;48.034;-1.764;2022-08-07T04:01:08;16.30;55.10
35305;DHT22;26433;48.034;-1.764;2022-08-07T04:06:16;16.30;55.30
35305;DHT22;26433;48.034;-1.764;2022-08-07T04:11:41;16.20;55.40
35305;DHT22;26433;48.034;-1.764;2022-08-07T04:17:08;16.20;55.60
35305;DHT22;26433;48.034;-1.764;2022-08-07T04:22:23;16.10;55.70
35305;DHT22;26433;48.034;-1.764;2022-08-07T04:27:32;16.10;55.90
35305;DHT22;26433;48.034;-1.764;2022-08-07T04:32:41;16.00;56.10
35305;DHT22;26433;48.034;-1.764;2022-08-07T04:37:49;15.90;56.30
35305;DHT22;26433;48.034;-1.764;2022-08-07T04:43:07;15.80;56.50
35305;DHT22;26433;48.034;-1.764;2022-08-07T04:48:19;15.80;56.60
35305;DHT22;26433;48.034;-1.764;2022-08-07T04:53:32;15.80;56.80
35305;DHT22;26433;48.034;-1.764;2022-08-07T04:59:01;15.70;56.90
35305;DHT22;26433;48.034;-1.764;2022-08-07T05:04:34;15.70;57.10
35305;DHT22;26433;48.034;-1.764;2022-08-07T05:09:56;15.60;57.20
35305;DHT22;26433;48.034;-1.764;2022-08-07T05:15:07;15.60;57.30
35305;DHT22;26433;48.034;-1.764;2022-08-07T05:20:32;15.60;57.40
35305;DHT22;26433;48.034;-1.764;2022-08-07T05:25:39;15.60;57.50
35305;DHT22;26433;48.034;-1.764;2022-08-07T05:31:05;15.60;57.50
35305;DHT22;26433;48.034;-1.764;2022-08-07T05:36:11;15.70;57.60
35305;DHT22;26433;48.034;-1.764;2022-08-07T05:41:24;15.70;57.80
35305;DHT22;26433;48.034;-1.764;2022-08-07T05:46:49;15.70;57.80
35305;DHT22;26433;48.034;-1.764;2022-08-07T05:51:56;15.80;57.50
35305;DHT22;26433;48.034;-1.764;2022-08-07T05:57:03;15.90;57.70
35305;DHT22;26433;48.034;-1.764;2022-08-07T06:02:13;15.90;57.80
35305;DHT22;26433;48.034;-1.764;2022-08-07T06:07:33;16.00;57.80
35305;DHT22;26433;48.034;-1.764;2022-08-07T06:13:00;16.20;57.80
35305;DHT22;26433;48.034;-1.764;2022-08-07T06:18:06;16.40;57.70
35305;DHT22;26433;48.034;-1.764;2022-08-07T06:23:15;16.60;57.70
35305;DHT22;26433;48.034;-1.764;2022-08-07T06:28:49;16.80;57.60
35305;DHT22;26433;48.034;-1.764;2022-08-07T06:33:54;17.00;57.50
35305;DHT22;26433;48.034;-1.764;2022-08-07T06:39:01;17.20;57.30
35305;DHT22;26433;48.034;-1.764;2022-08-07T06:44:26;17.40;57.30
35305;DHT22;26433;48.034;-1.764;2022-08-07T06:49:36;17.60;57.20
35305;DHT22;26433;48.034;-1.764;2022-08-07T06:54:56;17.90;57.00
35305;DHT22;26433;48.034;-1.764;2022-08-07T07:00:20;18.10;56.90
35305;DHT22;26433;48.034;-1.764;2022-08-07T07:05:25;18.30;56.60
35305;DHT22;26433;48.034;-1.764;2022-08-07T07:10:50;18.50;56.40
35305;DHT22;26433;48.034;-1.764;2022-08-07T07:16:01;18.80;56.20
35305;DHT22;26433;48.034;-1.764;2022-08-07T07:21:11;19.00;56.00
35305;DHT22;26433;48.034;-1.764;2022-08-07T07:26:22;19.20;55.70
35305;DHT22;26433;48.034;-1.764;2022-08-07T07:31:42;19.40;55.40
35305;DHT22;26433;48.034;-1.764;2022-08-07T07:36:48;19.60;55.00
35305;DHT22;26433;48.034;-1.764;2022-08-07T07:41:56;19.80;54.50
35305;DHT22;26433;48.034;-1.764;2022-08-07T07:47:15;20.00;54.10
35305;DHT22;26433;48.034;-1.764;2022-08-07T07:52:25;20.30;53.60
35305;DHT22;26433;48.034;-1.764;2022-08-07T07:57:33;20.50;53.10
35305;DHT22;26433;48.034;-1.764;2022-08-07T08:02:58;20.80;52.60
35305;DHT22;26433;48.034;-1.764;2022-08-07T08:08:09;21.00;52.10
35305;DHT22;26433;48.034;-1.764;2022-08-07T08:13:35;21.30;51.60
35305;DHT22;26433;48.034;-1.764;2022-08-07T08:18:57;21.50;51.10
35305;DHT22;26433;48.034;-1.764;2022-08-07T08:24:22;21.70;50.60
35305;DHT22;26433;48.034;-1.764;2022-08-07T08:29:51;22.00;50.20
35305;DHT22;26433;48.034;-1.764;2022-08-07T08:34:58;22.20;49.80
35305;DHT22;26433;48.034;-1.764;2022-08-07T08:40:06;22.40;49.40
35305;DHT22;26433;48.034;-1.764;2022-08-07T08:45:25;22.70;48.80
35305;DHT22;26433;48.034;-1.764;2022-08-07T08:50:55;23.10;48.20
35305;DHT22;26433;48.034;-1.764;2022-08-07T08:56:07;23.60;47.40
35305;DHT22;26433;48.034;-1.764;2022-08-07T09:01:21;24.10;46.50
35305;DHT22;26433;48.034;-1.764;2022-08-07T09:06:51;24.70;45.50
35305;DHT22;26433;48.034;-1.764;2022-08-07T09:12:08;25.40;44.30
35305;DHT22;26433;48.034;-1.764;2022-08-07T09:17:40;26.30;43.30
35305;DHT22;26433;48.034;-1.764;2022-08-07T09:23:12;27.20;42.20
35305;DHT22;26433;48.034;-1.764;2022-08-07T09:28:41;28.00;41.30
35305;DHT22;26433;48.034;-1.764;2022-08-07T09:34:13;28.90;40.40
35305;DHT22;26433;48.034;-1.764;2022-08-07T09:39:30;29.50;39.40
35305;DHT22;26433;48.034;-1.764;2022-08-07T09:45:05;30.10;38.80
35305;DHT22;26433;48.034;-1.764;2022-08-07T09:50:38;30.70;38.10
35305;DHT22;26433;48.034;-1.764;2022-08-07T09:55:57;31.20;37.50
35305;DHT22;26433;48.034;-1.764;2022-08-07T10:01:19;31.90;36.80
35305;DHT22;26433;48.034;-1.764;2022-08-07T10:06:57;32.40;36.20
35305;DHT22;26433;48.034;-1.764;2022-08-07T10:12:11;32.60;35.70
35305;DHT22;26433;48.034;-1.764;2022-08-07T10:17:43;33.00;35.40
35305;DHT22;26433;48.034;-1.764;2022-08-07T10:23:23;33.30;34.80
35305;DHT22;26433;48.034;-1.764;2022-08-07T10:29:10;33.60;34.20
35305;DHT22;26433;48.034;-1.764;2022-08-07T10:34:32;33.80;34.00
35305;DHT22;26433;48.034;-1.764;2022-08-07T10:39:55;34.20;33.40
35305;DHT22;26433;48.034;-1.764;2022-08-07T10:45:17;34.60;32.90
35305;DHT22;26433;48.034;-1.764;2022-08-07T10:50:48;34.80;32.60
35305;DHT22;26433;48.034;-1.764;2022-08-07T10:56:02;35.00;32.40
35305;DHT22;26433;48.034;-1.764;2022-08-07T11:01:20;35.20;31.90
35305;DHT22;26433;48.034;-1.764;2022-08-07T11:06:47;35.60;31.40
35305;DHT22;26433;48.034;-1.764;2022-08-07T11:12:00;36.20;30.90
35305;DHT22;26433;48.034;-1.764;2022-08-07T11:17:12;36.60;30.50
35305;DHT22;26433;48.034;-1.764;2022-08-07T11:22:41;37.00;30.30
35305;DHT22;26433;48.034;-1.764;2022-08-07T11:27:53;37.40;30.00
35305;DHT22;26433;48.034;-1.764;2022-08-07T11:33:10;38.10;29.60
35305;DHT22;26433;48.034;-1.764;2022-08-07T11:38:24;38.60;29.30
35305;DHT22;26433;48.034;-1.764;2022-08-07T11:43:35;39.00;29.10
35305;DHT22;26433;48.034;-1.764;2022-08-07T11:49:24;39.30;28.80
35305;DHT22;26433;48.034;-1.764;2022-08-07T11:55:03;39.50;28.60
35305;DHT22;26433;48.034;-1.764;2022-08-07T12:00:37;39.90;28.50
35305;DHT22;26433;48.034;-1.764;2022-08-07T12:06:03;39.90;28.20
35305;DHT22;26433;48.034;-1.764;2022-08-07T12:11:38;40.00;28.20
35305;DHT22;26433;48.034;-1.764;2022-08-07T12:17:09;40.00;28.00
35305;DHT22;26433;48.034;-1.764;2022-08-07T12:22:27;40.20;27.90
35305;DHT22;26433;48.034;-1.764;2022-08-07T12:27:49;40.30;27.70
35305;DHT22;26433;48.034;-1.764;2022-08-07T12:33:16;40.40;27.60
35305;DHT22;26433;48.034;-1.764;2022-08-07T12:38:32;40.30;27.50
35305;DHT22;26433;48.034;-1.764;2022-08-07T12:43:45;40.00;27.40
35305;DHT22;26433;48.034;-1.764;2022-08-07T12:49:14;39.70;27.30
35305;DHT22;26433;48.034;-1.764;2022-08-07T12:54:46;39.80;27.10
35305;DHT22;26433;48.034;-1.764;2022-08-07T12:59:59;40.10;27.00
35305;DHT22;26433;48.034;-1.764;2022-08-07T13:05:16;40.30;26.90
35305;DHT22;26433;48.034;-1.764;2022-08-07T13:10:47;40.50;26.70
35305;DHT22;26433;48.034;-1.764;2022-08-07T13:15:59;40.40;26.60
35305;DHT22;26433;48.034;-1.764;2022-08-07T13:21:11;40.70;26.50
35305;DHT22;26433;48.034;-1.764;2022-08-07T13:26:39;40.90;26.30
35305;DHT22;26433;48.034;-1.764;2022-08-07T13:31:51;40.90;26.30
35305;DHT22;26433;48.034;-1.764;2022-08-07T13:37:03;40.90;26.30
35305;DHT22;26433;48.034;-1.764;2022-08-07T13:42:23;40.90;26.30
35305;DHT22;26433;48.034;-1.764;2022-08-07T13:47:28;40.80;26.20
35305;DHT22;26433;48.034;-1.764;2022-08-07T13:52:55;40.50;26.10
35305;DHT22;26433;48.034;-1.764;2022-08-07T13:58:05;40.10;26.00
35305;DHT22;26433;48.034;-1.764;2022-08-07T14:03:33;40.00;26.00
35305;DHT22;26433;48.034;-1.764;2022-08-07T14:09:03;39.50;25.90
35305;DHT22;26433;48.034;-1.764;2022-08-07T14:14:11;39.10;26.00
35305;DHT22;26433;48.034;-1.764;2022-08-07T14:19:20;38.50;26.10
35305;DHT22;26433;48.034;-1.764;2022-08-07T14:24:48;38.10;26.00
35305;DHT22;26433;48.034;-1.764;2022-08-07T14:29:56;37.90;26.00
35305;DHT22;26433;48.034;-1.764;2022-08-07T14:35:17;37.50;26.00
35305;DHT22;26433;48.034;-1.764;2022-08-07T14:40:43;36.90;26.00
35305;DHT22;26433;48.034;-1.764;2022-08-07T14:45:53;36.30;26.20
35305;DHT22;26433;48.034;-1.764;2022-08-07T14:50:59;35.70;26.30
35305;DHT22;26433;48.034;-1.764;2022-08-07T14:56:08;35.10;26.50
35305;DHT22;26433;48.034;-1.764;2022-08-07T15:01:16;34.50;26.60
35305;DHT22;26433;48.034;-1.764;2022-08-07T15:06:26;33.90;26.80
35305;DHT22;26433;48.034;-1.764;2022-08-07T15:11:36;33.30;27.00
35305;DHT22;26433;48.034;-1.764;2022-08-07T15:17:09;32.80;27.10
35305;DHT22;26433;48.034;-1.764;2022-08-07T15:22:17;32.30;27.30
35305;DHT22;26433;48.034;-1.764;2022-08-07T15:27:39;31.90;27.50
35305;DHT22;26433;48.034;-1.764;2022-08-07T15:33:04;31.60;27.60
35305;DHT22;26433;48.034;-1.764;2022-08-07T15:38:26;31.30;28.10
35305;DHT22;26433;48.034;-1.764;2022-08-07T15:43:36;31.10;27.70
35305;DHT22;26433;48.034;-1.764;2022-08-07T15:49:05;31.00;27.90
35305;DHT22;26433;48.034;-1.764;2022-08-07T15:54:17;30.80;27.90
35305;DHT22;26433;48.034;-1.764;2022-08-07T15:59:25;30.60;28.00
35305;DHT22;26433;48.034;-1.764;2022-08-07T16:04:41;30.50;28.10
35305;DHT22;26433;48.034;-1.764;2022-08-07T16:09:48;30.40;28.20
35305;DHT22;26433;48.034;-1.764;2022-08-07T16:15:08;30.20;28.30
35305;DHT22;26433;48.034;-1.764;2022-08-07T16:20:50;30.00;28.40
35305;DHT22;26433;48.034;-1.764;2022-08-07T16:26:30;29.90;28.50
35305;DHT22;26433;48.034;-1.764;2022-08-07T16:31:47;29.80;28.60
35305;DHT22;26433;48.034;-1.764;2022-08-07T16:43:22;29.70;28.70
35305;DHT22;26433;48.034;-1.764;2022-08-07T16:54:59;29.50;28.80
35305;DHT22;26433;48.034;-1.764;2022-08-07T17:00:16;29.40;28.80
35305;DHT22;26433;48.034;-1.764;2022-08-07T17:05:43;29.30;28.80
35305;DHT22;26433;48.034;-1.764;2022-08-07T17:11:12;29.20;28.80
35305;DHT22;26433;48.034;-1.764;2022-08-07T17:16:20;29.20;28.90
35305;DHT22;26433;48.034;-1.764;2022-08-07T17:21:29;29.10;28.90
35305;DHT22;26433;48.034;-1.764;2022-08-07T17:26:58;29.10;29.10
35305;DHT22;26433;48.034;-1.764;2022-08-07T17:32:10;29.00;29.20
35305;DHT22;26433;48.034;-1.764;2022-08-07T17:37:50;29.00;29.40
35305;DHT22;26433;48.034;-1.764;2022-08-07T17:43:21;28.90;29.40
35305;DHT22;26433;48.034;-1.764;2022-08-07T17:48:57;28.80;29.50
35305;DHT22;26433;48.034;-1.764;2022-08-07T17:54:18;28.70;29.60
35305;DHT22;26433;48.034;-1.764;2022-08-07T17:59:46;28.70;29.80
35305;DHT22;26433;48.034;-1.764;2022-08-07T18:04:58;28.60;30.00
35305;DHT22;26433;48.034;-1.764;2022-08-07T18:10:31;28.50;30.00
35305;DHT22;26433;48.034;-1.764;2022-08-07T18:16:02;28.30;30.30
35305;DHT22;26433;48.034;-1.764;2022-08-07T18:21:10;28.20;31.10
35305;DHT22;26433;48.034;-1.764;2022-08-07T18:26:53;28.10;30.70
35305;DHT22;26433;48.034;-1.764;2022-08-07T18:32:13;28.00;31.00
35305;DHT22;26433;48.034;-1.764;2022-08-07T18:37:23;27.90;31.10
35305;DHT22;26433;48.034;-1.764;2022-08-07T18:43:02;27.90;31.40
35305;DHT22;26433;48.034;-1.764;2022-08-07T18:48:19;27.70;31.50
35305;DHT22;26433;48.034;-1.764;2022-08-07T18:53:51;27.60;31.60
35305;DHT22;26433;48.034;-1.764;2022-08-07T18:59:34;27.50;31.90
35305;DHT22;26433;48.034;-1.764;2022-08-07T19:05:05;27.40;32.10
35305;DHT22;26433;48.034;-1.764;2022-08-07T19:10:20;27.30;32.20
35305;DHT22;26433;48.034;-1.764;2022-08-07T19:15:44;27.10;32.40
35305;DHT22;26433;48.034;-1.764;2022-08-07T19:21:14;27.00;32.60
35305;DHT22;26433;48.034;-1.764;2022-08-07T19:26:43;26.90;32.70
35305;DHT22;26433;48.034;-1.764;2022-08-07T19:32:12;26.70;32.90
35305;DHT22;26433;48.034;-1.764;2022-08-07T19:37:39;26.60;33.10
35305;DHT22;26433;48.034;-1.764;2022-08-07T19:43:00;26.40;33.30
35305;DHT22;26433;48.034;-1.764;2022-08-07T19:48:11;26.30;33.50
35305;DHT22;26433;48.034;-1.764;2022-08-07T19:53:25;26.20;33.70
35305;DHT22;26433;48.034;-1.764;2022-08-07T19:58:50;26.00;33.80
35305;DHT22;26433;48.034;-1.764;2022-08-07T20:03:57;25.90;34.00
35305;DHT22;26433;48.034;-1.764;2022-08-07T20:09:04;25.80;34.30
35305;DHT22;26433;48.034;-1.764;2022-08-07T20:14:31;25.60;34.90
35305;DHT22;26433;48.034;-1.764;2022-08-07T20:19:39;25.50;34.50
35305;DHT22;26433;48.034;-1.764;2022-08-07T20:24:53;25.40;34.90
35305;DHT22;26433;48.034;-1.764;2022-08-07T20:29:59;25.20;35.00
35305;DHT22;26433;48.034;-1.764;2022-08-07T20:35:13;25.00;35.10
35305;DHT22;26433;48.034;-1.764;2022-08-07T20:40:26;24.90;35.40
35305;DHT22;26433;48.034;-1.764;2022-08-07T20:45:36;24.70;35.50
35305;DHT22;26433;48.034;-1.764;2022-08-07T20:51:03;24.70;35.70
35305;DHT22;26433;48.034;-1.764;2022-08-07T20:56:11;24.50;35.80
35305;DHT22;26433;48.034;-1.764;2022-08-07T21:01:20;24.40;35.90
35305;DHT22;26433;48.034;-1.764;2022-08-07T21:06:27;24.30;36.10
35305;DHT22;26433;48.034;-1.764;2022-08-07T21:11:34;24.50;36.30
35305;DHT22;26433;48.034;-1.764;2022-08-07T21:16:54;24.10;36.30
35305;DHT22;26433;48.034;-1.764;2022-08-07T21:22:22;24.00;36.40
35305;DHT22;26433;48.034;-1.764;2022-08-07T21:27:36;23.90;36.50
35305;DHT22;26433;48.034;-1.764;2022-08-07T21:32:56;23.70;36.50
35305;DHT22;26433;48.034;-1.764;2022-08-07T21:38:10;23.60;36.60
35305;DHT22;26433;48.034;-1.764;2022-08-07T21:43:19;23.50;36.70
35305;DHT22;26433;48.034;-1.764;2022-08-07T21:48:47;23.40;36.70
35305;DHT22;26433;48.034;-1.764;2022-08-07T21:54:12;23.30;36.80
35305;DHT22;26433;48.034;-1.764;2022-08-07T21:59:31;23.20;36.80
35305;DHT22;26433;48.034;-1.764;2022-08-07T22:04:59;23.10;36.80
35305;DHT22;26433;48.034;-1.764;2022-08-07T22:10:07;23.00;36.90
35305;DHT22;26433;48.034;-1.764;2022-08-07T22:15:19;22.90;37.00
35305;DHT22;26433;48.034;-1.764;2022-08-07T22:20:48;22.90;37.10
35305;DHT22;26433;48.034;-1.764;2022-08-07T22:26:01;22.80;37.20
35305;DHT22;26433;48.034;-1.764;2022-08-07T22:31:13;22.70;37.40
35305;DHT22;26433;48.034;-1.764;2022-08-07T22:36:45;22.50;37.50
35305;DHT22;26433;48.034;-1.764;2022-08-07T22:42:02;22.40;37.70
35305;DHT22;26433;48.034;-1.764;2022-08-07T22:47:31;22.40;37.90
35305;DHT22;26433;48.034;-1.764;2022-08-07T22:53:00;22.30;38.00
35305;DHT22;26433;48.034;-1.764;2022-08-07T22:58:26;22.20;38.30
35305;DHT22;26433;48.034;-1.764;2022-08-07T23:03:48;22.10;38.50
35305;DHT22;26433;48.034;-1.764;2022-08-07T23:09:20;22.10;38.70
35305;DHT22;26433;48.034;-1.764;2022-08-07T23:15:03;22.00;38.90
35305;DHT22;26433;48.034;-1.764;2022-08-07T23:20:18;21.90;39.20
35305;DHT22;26433;48.034;-1.764;2022-08-07T23:25:58;21.80;39.90
35305;DHT22;26433;48.034;-1.764;2022-08-07T23:31:22;21.70;39.50
35305;DHT22;26433;48.034;-1.764;2022-08-07T23:37:01;21.60;39.80
35305;DHT22;26433;48.034;-1.764;2022-08-07T23:42:28;21.50;40.10
35305;DHT22;26433;48.034;-1.764;2022-08-07T23:47:49;21.40;40.30
35305;DHT22;26433;48.034;-1.764;2022-08-07T23:53:04;21.30;40.70
35305;DHT22;26433;48.034;-1.764;2022-08-07T23:58:24;21.20;40.80
